createdAt,value
2019-04-12T00:00:43.169Z,2.67
2019-04-12T00:03:11.525Z,2.80
2019-04-12T00:05:39.844Z,2.60
2019-04-12T00:08:08.138Z,2.50
2019-04-12T00:10:36.489Z,2.43
2019-04-12T00:13:04.785Z,2.13
2019-04-12T00:15:33.248Z,2.30
2019-04-12T00:18:01.557Z,2.40
2019-04-12T00:20:29.888Z,2.20
2019-04-12T00:22:58.322Z,2.73
2019-04-12T00:25:26.598Z,2.30
2019-04-12T00:27:54.935Z,2.43
2019-04-12T00:30:23.238Z,2.50
2019-04-12T00:32:52.354Z,2.63
2019-04-12T00:35:21.569Z,3.00
2019-04-12T00:37:55.093Z,2.10
2019-04-12T00:40:20.561Z,2.33
2019-04-12T00:42:48.933Z,2.37
2019-04-12T00:45:17.220Z,3.17
2019-04-12T00:47:45.517Z,2.40
2019-04-12T00:50:13.837Z,2.40
2019-04-12T00:52:43.585Z,2.30
2019-04-12T00:55:12.129Z,3.00
2019-04-12T00:57:40.508Z,3.03
2019-04-12T01:00:08.949Z,2.60
2019-04-12T01:02:45.933Z,2.57
2019-04-12T01:05:34.160Z,2.70
2019-04-12T01:08:07.068Z,2.87
2019-04-12T01:10:39.254Z,2.53
2019-04-12T01:13:07.755Z,3.00
2019-04-12T01:15:36.576Z,2.50
2019-04-12T01:18:05.742Z,2.40
2019-04-12T01:20:36.345Z,2.43
2019-04-12T01:23:09.696Z,2.10
2019-04-12T01:25:36.030Z,3.00
2019-04-12T01:28:04.701Z,3.00
2019-04-12T01:30:32.974Z,2.57
2019-04-12T01:33:01.752Z,2.30
2019-04-12T01:35:30.044Z,3.40
2019-04-12T01:37:58.921Z,3.30
2019-04-12T01:40:27.239Z,2.87
2019-04-12T01:42:55.509Z,2.63
2019-04-12T01:45:23.786Z,2.50
2019-04-12T01:47:52.090Z,2.80
2019-04-12T01:50:20.403Z,2.30
2019-04-12T01:52:48.701Z,2.57
2019-04-12T01:55:17.218Z,2.43
2019-04-12T01:57:45.541Z,2.40
2019-04-12T02:00:13.845Z,2.90
2019-04-12T02:02:42.335Z,2.20
2019-04-12T02:05:10.636Z,3.03
2019-04-12T02:07:38.949Z,2.83
2019-04-12T02:10:07.336Z,3.07
2019-04-12T02:12:35.721Z,2.87
2019-04-12T02:15:05.583Z,2.90
2019-04-12T02:17:33.854Z,2.93
2019-04-12T02:20:02.184Z,3.20
2019-04-12T02:22:30.495Z,2.70
2019-04-12T02:24:58.819Z,2.97
2019-04-12T02:27:27.239Z,4.10
2019-04-12T02:29:55.512Z,3.20
2019-04-12T02:32:25.442Z,2.43
2019-04-12T02:34:55.616Z,3.43
2019-04-12T02:37:24.018Z,3.07
2019-04-12T02:39:53.071Z,3.50
2019-04-12T02:42:21.372Z,3.07
2019-04-12T02:44:49.696Z,3.70
2019-04-12T02:47:19.614Z,3.00
2019-04-12T02:49:53.435Z,3.63
2019-04-12T02:52:26.337Z,3.43
2019-04-12T02:54:56.271Z,3.30
2019-04-12T02:57:26.253Z,3.60
2019-04-12T02:59:54.563Z,3.33
2019-04-12T03:02:24.497Z,3.80
2019-04-12T03:04:52.794Z,3.27
2019-04-12T03:07:21.175Z,3.67
2019-04-12T03:09:51.708Z,3.13
2019-04-12T03:12:20.805Z,3.00
2019-04-12T03:14:49.229Z,3.93
2019-04-12T03:17:17.847Z,3.30
2019-04-12T03:19:46.832Z,3.63
2019-04-12T03:22:15.203Z,4.53
2019-04-12T03:24:43.806Z,3.80
2019-04-12T03:27:12.182Z,3.80
2019-04-12T03:29:40.557Z,3.60
2019-04-12T03:32:08.958Z,3.73
2019-04-12T03:34:39.641Z,4.87
2019-04-12T03:37:07.941Z,4.63
2019-04-12T03:39:36.373Z,4.43
2019-04-12T03:42:04.665Z,3.83
2019-04-12T03:44:32.986Z,3.20
2019-04-12T03:47:02.397Z,3.87
2019-04-12T03:49:30.666Z,4.27
2019-04-12T03:51:59.728Z,3.87
2019-04-12T03:54:28.385Z,3.93
2019-04-12T03:56:56.705Z,3.60
2019-04-12T03:59:25.002Z,4.17
2019-04-12T04:01:55.776Z,3.97
2019-04-12T04:04:24.066Z,3.63
2019-04-12T04:06:55.208Z,3.60
2019-04-12T04:09:23.529Z,4.90
2019-04-12T04:11:51.922Z,4.60
2019-04-12T04:14:20.696Z,3.40
2019-04-12T04:16:51.074Z,4.03
2019-04-12T04:19:20.517Z,4.70
2019-04-12T04:21:50.433Z,4.30
2019-04-12T04:24:20.371Z,4.53
2019-04-12T04:26:55.821Z,3.50
2019-04-12T04:29:31.746Z,4.20
2019-04-12T04:32:19.549Z,5.07
2019-04-12T04:34:48.058Z,4.27
2019-04-12T04:37:17.107Z,4.80
2019-04-12T04:39:45.379Z,4.20
2019-04-12T04:42:13.682Z,4.90
2019-04-12T04:44:42.020Z,4.20
2019-04-12T04:47:10.734Z,5.27
2019-04-12T04:49:40.992Z,5.00
2019-04-12T04:52:09.304Z,4.30
2019-04-12T04:54:37.607Z,5.03
2019-04-12T04:57:05.933Z,4.47
2019-04-12T04:59:34.478Z,4.00
2019-04-12T05:02:02.759Z,5.13
2019-04-12T05:04:31.048Z,4.53
2019-04-12T05:06:59.427Z,5.50
2019-04-12T05:09:27.699Z,4.97
2019-04-12T05:11:56.135Z,5.60
2019-04-12T05:14:24.460Z,5.00
2019-04-12T05:16:52.734Z,4.90
2019-04-12T05:19:21.072Z,4.93
2019-04-12T05:21:49.373Z,5.50
2019-04-12T05:24:17.728Z,5.70
2019-04-12T05:26:46.123Z,5.60
2019-04-12T05:29:14.482Z,5.93
2019-04-12T05:31:45.765Z,5.23
2019-04-12T05:34:14.038Z,5.20
2019-04-12T05:36:42.480Z,5.53
2019-04-12T05:39:10.777Z,5.60
2019-04-12T05:41:39.138Z,4.93
2019-04-12T05:44:09.117Z,4.97
2019-04-12T05:46:44.800Z,5.40
2019-04-12T05:49:20.601Z,6.00
2019-04-12T05:51:49.346Z,6.57
2019-04-12T05:54:18.312Z,5.73
2019-04-12T05:56:56.722Z,5.60
2019-04-12T05:59:27.559Z,6.03
2019-04-12T06:02:06.206Z,5.63
2019-04-12T06:04:35.013Z,5.60
2019-04-12T06:07:03.859Z,5.43
2019-04-12T06:09:32.275Z,6.07
2019-04-12T06:12:00.579Z,5.40
2019-04-12T06:14:28.857Z,5.47
2019-04-12T06:17:01.528Z,5.10
2019-04-12T06:19:27.719Z,4.43
2019-04-12T06:22:03.871Z,4.87
2019-04-12T06:24:32.218Z,5.30
2019-04-12T06:27:18.970Z,5.30
2019-04-12T06:29:47.265Z,5.20
2019-04-12T06:32:16.328Z,4.43
2019-04-12T06:34:44.784Z,4.47
2019-04-12T06:37:13.116Z,5.47
2019-04-12T06:39:45.023Z,5.07
2019-04-12T06:42:13.453Z,4.80
2019-04-12T06:44:41.836Z,5.83
2019-04-12T06:47:10.187Z,4.80
2019-04-12T06:49:38.649Z,4.90
2019-04-12T06:52:06.924Z,4.87
2019-04-12T06:54:35.198Z,4.33
2019-04-12T06:57:05.325Z,4.67
2019-04-12T06:59:33.673Z,3.57
2019-04-12T07:02:06.256Z,3.83
2019-04-12T07:04:36.199Z,4.33
2019-04-12T07:07:04.651Z,4.20
2019-04-12T07:09:32.922Z,3.60
2019-04-12T07:12:01.212Z,4.57
2019-04-12T07:14:29.606Z,3.73
2019-04-12T07:16:57.893Z,4.30
2019-04-12T07:19:26.184Z,4.53
2019-04-12T07:21:54.534Z,3.93
2019-04-12T07:24:22.931Z,3.83
2019-04-12T07:26:51.204Z,5.07
2019-04-12T07:29:19.491Z,4.80
2019-04-12T07:31:48.363Z,7.33
2019-04-12T07:34:16.656Z,5.53
2019-04-12T07:36:44.943Z,8.77
2019-04-12T07:39:13.388Z,8.40
2019-04-12T07:41:41.673Z,5.40
2019-04-12T07:44:10.252Z,4.90
2019-04-12T07:46:38.587Z,4.00
2019-04-12T07:49:07.585Z,3.60
2019-04-12T07:51:40.010Z,3.60
2019-04-12T07:54:12.691Z,3.30
2019-04-12T07:56:41.003Z,3.10
2019-04-12T07:59:10.937Z,3.37
2019-04-12T08:01:58.900Z,3.17
2019-04-12T08:04:31.429Z,2.73
2019-04-12T08:07:04.062Z,3.50
2019-04-12T08:09:32.616Z,3.13
2019-04-12T08:12:01.051Z,3.20
2019-04-12T08:14:29.344Z,3.00
2019-04-12T08:16:58.197Z,3.23
2019-04-12T08:19:26.557Z,3.47
2019-04-12T08:21:55.051Z,3.53
2019-04-12T08:24:23.330Z,2.43
2019-04-12T08:26:51.612Z,2.90
2019-04-12T08:29:22.099Z,3.37
2019-04-12T08:31:49.970Z,2.67
2019-04-12T08:34:18.423Z,2.43
2019-04-12T08:36:46.710Z,3.57
2019-04-12T08:39:14.994Z,3.30
2019-04-12T08:41:43.428Z,3.23
2019-04-12T08:44:11.715Z,3.30
2019-04-12T08:46:40.061Z,3.70
2019-04-12T08:49:08.421Z,2.93
2019-04-12T08:51:36.856Z,3.10
2019-04-12T08:54:05.519Z,3.17
2019-04-12T08:56:34.586Z,3.27
2019-04-12T08:59:03.049Z,4.13
2019-04-12T09:01:31.403Z,3.13
2019-04-12T09:03:59.731Z,2.87
2019-04-12T09:06:28.173Z,2.77
2019-04-12T09:09:00.608Z,3.90
2019-04-12T09:11:28.988Z,3.93
2019-04-12T09:13:57.240Z,3.70
2019-04-12T09:16:25.616Z,3.60
2019-04-12T09:18:56.222Z,2.67
2019-04-12T09:21:43.101Z,2.73
2019-04-12T09:24:13.054Z,2.33
2019-04-12T09:26:41.445Z,2.90
2019-04-12T09:29:09.734Z,3.30
2019-04-12T09:31:38.417Z,2.60
2019-04-12T09:34:16.442Z,4.10
2019-04-12T09:36:36.920Z,4.43
2019-04-12T09:39:07.276Z,4.20
2019-04-12T09:41:35.625Z,4.20
2019-04-12T09:44:03.913Z,3.67
2019-04-12T09:46:32.687Z,4.10
2019-04-12T09:49:00.962Z,4.53
2019-04-12T09:51:29.341Z,4.50
2019-04-12T09:53:57.685Z,4.60
2019-04-12T09:56:26.012Z,3.20
2019-04-12T09:58:57.188Z,3.07
2019-04-12T10:01:24.536Z,2.87
2019-04-12T10:03:52.821Z,2.80
2019-04-12T10:06:21.142Z,2.03
2019-04-12T10:08:49.418Z,1.83
2019-04-12T10:11:17.705Z,1.90
2019-04-12T10:13:46.101Z,2.27
2019-04-12T10:16:14.373Z,2.20
2019-04-12T10:18:42.802Z,2.50
2019-04-12T10:21:12.498Z,2.10
2019-04-12T10:23:41.185Z,1.77
2019-04-12T10:26:09.538Z,2.50
2019-04-12T10:28:49.428Z,2.10
2019-04-12T10:31:08.013Z,2.27
2019-04-12T10:33:36.383Z,1.77
2019-04-12T10:36:04.707Z,2.53
2019-04-12T10:38:34.652Z,2.43
2019-04-12T10:41:03.079Z,3.00
2019-04-12T10:43:31.474Z,2.50
2019-04-12T10:46:01.456Z,2.90
2019-04-12T10:48:49.541Z,2.90
2019-04-12T10:51:19.464Z,2.87
2019-04-12T10:53:49.386Z,3.00
2019-04-12T10:56:17.719Z,2.93
2019-04-12T10:58:46.829Z,2.83
2019-04-12T11:01:15.178Z,2.77
2019-04-12T11:03:43.617Z,2.97
2019-04-12T11:06:11.917Z,3.30
2019-04-12T11:08:40.230Z,3.93
2019-04-12T11:11:09.338Z,3.67
2019-04-12T11:13:37.622Z,2.77
2019-04-12T11:16:06.192Z,4.50
2019-04-12T11:18:34.485Z,3.50
2019-04-12T11:21:02.956Z,3.00
2019-04-12T11:23:31.251Z,2.90
2019-04-12T11:25:59.532Z,3.57
2019-04-12T11:28:27.828Z,3.37
2019-04-12T11:30:56.139Z,3.73
2019-04-12T11:33:24.439Z,3.30
2019-04-12T11:35:52.726Z,3.60
2019-04-12T11:38:21.061Z,3.50
2019-04-12T11:40:49.371Z,3.93
2019-04-12T11:43:17.744Z,3.37
2019-04-12T11:45:46.500Z,3.47
2019-04-12T11:48:15.019Z,3.30
2019-04-12T11:50:43.340Z,3.13
2019-04-12T11:53:12.960Z,2.70
2019-04-12T11:55:41.194Z,2.97
2019-04-12T11:58:09.466Z,3.30
2019-04-12T12:00:48.702Z,3.50
2019-04-12T12:03:35.202Z,2.87
2019-04-12T12:06:08.070Z,3.00
2019-04-12T12:08:40.794Z,3.20
2019-04-12T12:11:11.084Z,2.83
2019-04-12T12:13:57.501Z,2.87
2019-04-12T12:16:39.940Z,3.20
2019-04-12T12:19:09.986Z,3.40
2019-04-12T12:21:38.378Z,3.43
2019-04-12T12:24:07.441Z,4.00
2019-04-12T12:26:35.770Z,3.33
2019-04-12T12:29:04.319Z,3.77
2019-04-12T12:31:32.932Z,3.47
2019-04-12T12:34:01.211Z,3.47
2019-04-12T12:36:29.560Z,3.60
2019-04-12T12:38:57.833Z,3.83
2019-04-12T12:41:26.125Z,3.97
2019-04-12T12:43:54.570Z,3.73
2019-04-12T12:46:23.424Z,3.87
2019-04-12T12:48:51.759Z,3.07
2019-04-12T12:51:20.064Z,3.63
2019-04-12T12:53:48.342Z,3.30
2019-04-12T12:56:17.259Z,2.90
2019-04-12T12:58:45.537Z,2.40
2019-04-12T13:01:13.812Z,3.23
2019-04-12T13:03:44.603Z,2.77
2019-04-12T13:06:12.206Z,2.40
2019-04-12T13:08:40.731Z,2.10
2019-04-12T13:11:09.047Z,2.40
2019-04-12T13:13:37.328Z,1.70
2019-04-12T13:16:06.499Z,2.60
2019-04-12T13:18:34.797Z,2.50
2019-04-12T13:21:03.495Z,2.70
2019-04-12T13:23:31.831Z,1.90
2019-04-12T13:26:00.114Z,2.10
2019-04-12T13:28:28.462Z,2.50
2019-04-12T13:31:10.565Z,2.40
2019-04-12T13:33:46.620Z,2.60
2019-04-12T13:36:22.566Z,2.90
2019-04-12T13:38:58.250Z,9.83
2019-04-12T13:41:26.664Z,3.17
2019-04-12T13:43:54.965Z,2.47
2019-04-12T13:46:23.239Z,2.57
2019-04-12T13:48:51.606Z,2.70
2019-04-12T13:51:21.243Z,3.20
2019-04-12T13:53:49.478Z,2.30
2019-04-12T13:56:17.774Z,2.90
2019-04-12T13:58:46.212Z,2.33
2019-04-12T14:01:14.567Z,2.63
2019-04-12T14:03:42.866Z,2.83
2019-04-12T14:06:11.174Z,2.90
2019-04-12T14:08:39.480Z,2.67
2019-04-12T14:11:07.748Z,2.87
2019-04-12T14:13:36.085Z,2.90
2019-04-12T14:16:07.433Z,3.30
2019-04-12T14:18:35.820Z,2.77
2019-04-12T14:21:04.265Z,3.30
2019-04-12T14:23:32.597Z,2.90
2019-04-12T14:26:00.994Z,2.60
2019-04-12T14:28:31.024Z,2.30
2019-04-12T14:31:01.231Z,3.40
2019-04-12T14:33:33.752Z,3.43
2019-04-12T14:36:18.642Z,3.07
2019-04-12T14:38:48.576Z,2.60
2019-04-12T14:41:16.884Z,3.33
2019-04-12T14:43:46.807Z,3.43
2019-04-12T14:46:28.701Z,3.10
2019-04-12T14:48:57.613Z,3.80
2019-04-12T14:51:26.590Z,2.93
2019-04-12T14:53:54.888Z,3.83
2019-04-12T14:56:23.242Z,3.23
2019-04-12T14:58:51.576Z,3.30
2019-04-12T15:01:19.973Z,3.13
2019-04-12T15:03:48.387Z,2.93
2019-04-12T15:06:16.687Z,2.90
2019-04-12T15:08:45.003Z,2.70
2019-04-12T15:11:13.368Z,3.27
2019-04-12T15:13:41.656Z,3.10
2019-04-12T15:16:10.045Z,3.77
2019-04-12T15:18:38.565Z,3.30
2019-04-12T15:21:06.863Z,3.73
2019-04-12T15:23:35.131Z,2.90
2019-04-12T15:26:06.404Z,3.37
2019-04-12T15:28:34.693Z,3.67
2019-04-12T15:31:02.978Z,3.87
2019-04-12T15:33:31.283Z,3.87
2019-04-12T15:35:59.593Z,3.73
2019-04-12T15:38:28.046Z,4.00
2019-04-12T15:40:56.334Z,4.13
2019-04-12T15:43:24.673Z,4.13
2019-04-12T15:45:53.056Z,3.00
2019-04-12T15:48:21.354Z,3.40
2019-04-12T15:50:50.118Z,3.57
2019-04-12T15:53:18.430Z,4.70
2019-04-12T15:55:46.807Z,3.30
2019-04-12T15:58:15.173Z,3.03
2019-04-12T16:00:53.817Z,3.60
2019-04-12T16:03:24.452Z,4.07
2019-04-12T16:05:52.791Z,3.63
2019-04-12T16:08:21.267Z,4.13
2019-04-12T16:10:58.669Z,4.43
2019-04-12T16:13:45.041Z,3.90
2019-04-12T16:16:28.556Z,4.00
2019-04-12T16:18:56.924Z,3.80
2019-04-12T16:21:26.375Z,4.70
2019-04-12T16:23:54.803Z,3.97
2019-04-12T16:26:23.073Z,3.77
2019-04-12T16:28:55.429Z,4.00
2019-04-12T16:31:40.953Z,3.20
2019-04-12T16:34:19.558Z,3.23
2019-04-12T16:36:52.369Z,3.00
2019-04-12T16:39:22.053Z,4.00
2019-04-12T16:41:51.085Z,3.83
2019-04-12T16:44:19.358Z,3.90
2019-04-12T16:46:48.058Z,3.13
2019-04-12T16:49:16.351Z,3.17
2019-04-12T16:51:44.728Z,3.57
2019-04-12T16:54:13.128Z,4.03
2019-04-12T16:56:42.301Z,4.23
2019-04-12T16:59:10.974Z,4.53
2019-04-12T17:01:39.252Z,4.73
2019-04-12T17:04:07.574Z,4.20
2019-04-12T17:06:35.854Z,4.60
2019-04-12T17:09:06.822Z,4.60
2019-04-12T17:11:35.096Z,5.07
2019-04-12T17:14:03.450Z,4.50
2019-04-12T17:16:31.782Z,4.53
2019-04-12T17:19:00.062Z,4.97
2019-04-12T17:21:28.347Z,5.47
2019-04-12T17:23:57.020Z,4.43
2019-04-12T17:26:25.493Z,4.80
2019-04-12T17:28:53.943Z,4.63
2019-04-12T17:31:22.988Z,4.40
2019-04-12T17:33:51.328Z,4.13
2019-04-12T17:36:19.705Z,4.07
2019-04-12T17:38:48.118Z,4.20
2019-04-12T17:41:16.422Z,4.50
2019-04-12T17:43:44.775Z,4.53
2019-04-12T17:46:13.155Z,4.40
2019-04-12T17:48:43.123Z,5.20
2019-04-12T17:51:24.996Z,4.43
2019-04-12T17:53:54.937Z,4.67
2019-04-12T17:56:27.343Z,5.13
2019-04-12T17:58:53.315Z,4.80
2019-04-12T18:01:29.330Z,4.07
2019-04-12T18:03:59.285Z,4.13
2019-04-12T18:06:27.596Z,4.83
2019-04-12T18:08:55.914Z,4.67
2019-04-12T18:11:28.587Z,4.60
2019-04-12T18:13:56.866Z,4.80
2019-04-12T18:16:25.530Z,4.70
2019-04-12T18:18:55.289Z,4.30
2019-04-12T18:21:24.197Z,3.50
2019-04-12T18:23:52.524Z,4.13
2019-04-12T18:26:20.795Z,4.47
2019-04-12T18:28:49.132Z,4.20
2019-04-12T18:31:17.517Z,4.13
2019-04-12T18:33:45.939Z,5.27
2019-04-12T18:36:14.264Z,5.23
2019-04-12T18:38:42.566Z,5.30
2019-04-12T18:41:11.126Z,6.83
2019-04-12T18:43:39.499Z,7.90
2019-04-12T18:46:07.781Z,7.03
2019-04-12T18:48:36.132Z,7.17
2019-04-12T18:51:05.184Z,6.63
2019-04-12T18:53:34.409Z,6.93
2019-04-12T18:56:02.923Z,11.93
2019-04-12T18:58:31.417Z,9.27
2019-04-12T19:00:59.712Z,7.00
2019-04-12T19:03:28.194Z,7.43
2019-04-12T19:05:56.472Z,6.50
2019-04-12T19:08:24.754Z,6.30
2019-04-12T19:10:53.098Z,6.10
2019-04-12T19:13:21.759Z,5.40
2019-04-12T19:15:50.103Z,5.10
2019-04-12T19:18:18.875Z,5.03
2019-04-12T19:20:47.234Z,6.03
2019-04-12T19:23:15.519Z,5.20
2019-04-12T19:25:43.822Z,4.87
2019-04-12T19:28:12.239Z,6.13
2019-04-12T19:30:42.225Z,5.03
2019-04-12T19:33:12.213Z,5.40
2019-04-12T19:35:51.244Z,6.30
2019-04-12T19:38:21.282Z,5.87
2019-04-12T19:40:50.638Z,6.20
2019-04-12T19:43:19.006Z,6.00
2019-04-12T19:45:47.302Z,4.93
2019-04-12T19:48:15.627Z,5.20
2019-04-12T19:50:43.895Z,5.00
2019-04-12T19:53:12.197Z,5.63
2019-04-12T19:55:40.515Z,5.67
2019-04-12T19:58:09.628Z,5.67
2019-04-12T20:00:38.603Z,5.40
2019-04-12T20:03:07.266Z,6.03
2019-04-12T20:05:38.431Z,4.37
2019-04-12T20:08:06.721Z,5.30
2019-04-12T20:10:35.077Z,5.97
2019-04-12T20:13:03.382Z,5.10
2019-04-12T20:15:31.712Z,4.50
2019-04-12T20:18:00.040Z,4.93
2019-04-12T20:20:30.711Z,5.07
2019-04-12T20:22:59.036Z,4.90
2019-04-12T20:25:27.372Z,4.50
2019-04-12T20:27:55.699Z,4.00
2019-04-12T20:30:24.650Z,4.30
2019-04-12T20:33:03.645Z,4.57
2019-04-12T20:35:23.219Z,4.77
2019-04-12T20:37:51.444Z,5.07
2019-04-12T20:40:19.951Z,4.20
2019-04-12T20:42:50.771Z,3.87
2019-04-12T20:45:18.366Z,4.00
2019-04-12T20:47:46.690Z,5.00
2019-04-12T20:50:14.975Z,4.00
2019-04-12T20:52:43.278Z,4.87
2019-04-12T20:55:11.551Z,4.47
2019-04-12T20:57:40.043Z,4.10
2019-04-12T21:00:08.391Z,3.90
2019-04-12T21:02:40.535Z,4.20
2019-04-12T21:05:07.243Z,4.00
2019-04-12T21:07:36.299Z,3.90
2019-04-12T21:10:04.804Z,3.97
2019-04-12T21:12:33.083Z,4.47
2019-04-12T21:15:01.356Z,4.40
2019-04-12T21:17:29.730Z,4.53
2019-04-12T21:19:58.078Z,4.30
2019-04-12T21:22:26.360Z,4.67
2019-04-12T21:24:54.772Z,4.07
2019-04-12T21:27:23.054Z,4.97
2019-04-12T21:29:52.103Z,4.70
2019-04-12T21:32:20.437Z,5.50
2019-04-12T21:34:48.766Z,4.60
2019-04-12T21:37:17.277Z,4.40
2019-04-12T21:39:46.892Z,4.67
2019-04-12T21:42:15.338Z,4.33
2019-04-12T21:44:43.718Z,3.73
2019-04-12T21:47:12.092Z,4.30
2019-04-12T21:49:40.426Z,4.90
2019-04-12T21:52:08.704Z,3.93
2019-04-12T21:54:36.984Z,4.20
2019-04-12T21:57:05.290Z,4.10
2019-04-12T21:59:33.686Z,4.03
2019-04-12T22:02:02.189Z,4.30
2019-04-12T22:04:30.971Z,5.07
2019-04-12T22:07:00.014Z,4.13
2019-04-12T22:09:28.367Z,4.20
2019-04-12T22:11:56.695Z,4.33
2019-04-12T22:14:24.999Z,3.73
2019-04-12T22:16:53.440Z,5.33
2019-04-12T22:19:21.746Z,4.63
2019-04-12T22:21:50.027Z,6.20
2019-04-12T22:24:18.325Z,4.70
2019-04-12T22:26:46.715Z,4.50
2019-04-12T22:29:15.010Z,4.77
2019-04-12T22:31:45.607Z,5.77
2019-04-12T22:34:13.933Z,6.07
2019-04-12T22:36:42.577Z,4.87
2019-04-12T22:39:11.132Z,5.27
2019-04-12T22:41:39.551Z,4.87
2019-04-12T22:44:07.889Z,4.70
2019-04-12T22:46:36.199Z,5.40
2019-04-12T22:49:04.495Z,5.20
2019-04-12T22:51:32.811Z,4.30
2019-04-12T22:54:01.093Z,4.63
2019-04-12T22:56:29.412Z,5.60
2019-04-12T22:58:57.689Z,4.70
2019-04-12T23:01:26.042Z,4.47
2019-04-12T23:04:04.675Z,4.77
2019-04-12T23:06:24.379Z,5.10
2019-04-12T23:08:52.662Z,5.13
2019-04-12T23:11:21.125Z,5.50
2019-04-12T23:13:49.773Z,5.57
2019-04-12T23:16:18.135Z,4.60
2019-04-12T23:18:46.410Z,5.00
2019-04-12T23:21:14.727Z,5.00
2019-04-12T23:23:43.005Z,5.10
2019-04-12T23:26:11.361Z,4.80
2019-04-12T23:28:39.672Z,5.20
2019-04-12T23:31:18.185Z,4.83
2019-04-12T23:33:56.909Z,3.80
2019-04-12T23:36:26.855Z,5.80
2019-04-12T23:38:55.251Z,4.93
2019-04-12T23:41:23.594Z,5.07
2019-04-12T23:43:51.896Z,5.40
2019-04-12T23:46:20.189Z,4.63
2019-04-12T23:48:48.725Z,5.60
2019-04-12T23:51:17.003Z,6.30
2019-04-12T23:53:45.348Z,5.73
2019-04-12T23:56:13.684Z,5.20
2019-04-12T23:58:42.000Z,6.00
